Time;durP1;ratioP1;P1;durP2;ratioP2;P2;SDS_P1;SDS_P2;PMS_P1;PMS_P2;Temp;Humidity;BMP_temperature;BMP_pressure;BME280_temperature;BME280_humidity;BME280_pressure;Samples;Min_cycle;Max_cycle;Signal;HPM_P1;HPM_P2
2023/09/05 00:02:15;;;;;;;3.53;1.65;;;18.60;99.90;;;;;;4977493;28;20117;-66
2023/09/05 00:04:42;;;;;;;4.07;1.70;;;18.60;99.90;;;;;;4973887;28;20041;-66
2023/09/05 00:07:09;;;;;;;2.50;1.55;;;18.60;99.90;;;;;;4976072;28;20027;-67
2023/09/05 00:09:36;;;;;;;3.20;1.42;;;18.60;99.90;;;;;;4975505;28;20101;-66
2023/09/05 00:12:06;;;;;;;2.22;1.33;;;18.70;99.90;;;;;;4974832;28;20097;-67
2023/09/05 00:14:31;;;;;;;2.65;1.40;;;18.80;99.90;;;;;;4976646;28;20106;-66
2023/09/05 00:16:57;;;;;;;3.08;1.50;;;18.80;99.90;;;;;;4974801;28;20138;-66
2023/09/05 00:19:22;;;;;;;4.93;1.67;;;18.80;99.90;;;;;;4975385;28;20069;-66
2023/09/05 00:21:48;;;;;;;4.93;1.70;;;18.80;99.90;;;;;;4977545;28;20034;-66
2023/09/05 00:24:31;;;;;;;2.00;1.60;;;18.70;99.90;;;;;;4977594;28;20027;-66
2023/09/05 00:27:01;;;;;;;2.78;1.65;;;18.80;99.90;;;;;;4973938;28;20450;-67
2023/09/05 00:29:29;;;;;;;2.35;1.40;;;18.80;99.90;;;;;;4973404;28;20027;-67
2023/09/05 00:32:03;;;;;;;2.92;1.55;;;18.90;99.90;;;;;;4973643;28;20063;-65
2023/09/05 00:34:34;;;;;;;5.22;1.70;;;18.90;99.90;;;;;;4976333;28;20880;-67
2023/09/05 00:37:01;;;;;;;4.10;1.33;;;18.80;99.90;;;;;;4975519;28;20027;-67
2023/09/05 00:39:30;;;;;;;3.85;1.30;;;18.80;99.90;;;;;;4978850;28;20118;-66
2023/09/05 00:41:57;;;;;;;2.40;1.27;;;18.70;99.90;;;;;;4958724;28;20215;-66
2023/09/05 00:44:26;;;;;;;2.45;1.38;;;18.60;99.90;;;;;;4976358;28;20106;-64
2023/09/05 00:46:54;;;;;;;1.90;1.30;;;18.60;99.90;;;;;;4978916;28;20030;-66
2023/09/05 00:49:23;;;;;;;2.60;1.58;;;18.50;99.90;;;;;;4975964;28;20391;-67
2023/09/05 00:51:50;;;;;;;2.38;1.45;;;18.60;99.90;;;;;;4967099;28;20047;-65
2023/09/05 00:54:16;;;;;;;2.10;1.50;;;18.60;99.90;;;;;;4974395;28;20030;-66
2023/09/05 00:56:43;;;;;;;2.25;1.55;;;18.60;99.90;;;;;;4976594;28;20034;-66
2023/09/05 00:59:10;;;;;;;2.10;1.58;;;18.60;99.90;;;;;;4974978;28;20057;-66
2023/09/05 01:01:36;;;;;;;4.22;1.60;;;18.60;99.90;;;;;;4976971;28;20039;-66
2023/09/05 01:04:02;;;;;;;2.80;1.73;;;18.60;99.90;;;;;;4993280;23;20062;-64
2023/09/05 01:06:46;;;;;;;2.20;1.48;;;18.60;99.90;;;;;;4969697;28;20046;-64
2023/09/05 01:09:25;;;;;;;2.80;1.60;;;18.50;99.90;;;;;;4963701;28;20428;-64
2023/09/05 01:11:50;;;;;;;2.33;1.50;;;18.50;99.90;;;;;;4977558;28;20251;-65
2023/09/05 01:14:16;;;;;;;3.88;1.50;;;18.60;99.90;;;;;;4968432;28;20030;-65
2023/09/05 01:16:45;;;;;;;3.35;1.40;;;18.70;99.90;;;;;;4963490;28;20523;-64
2023/09/05 01:19:14;;;;;;;2.45;1.45;;;18.70;99.90;;;;;;4965625;28;20035;-65
2023/09/05 01:22:02;;;;;;;3.47;1.88;;;18.70;99.90;;;;;;4960517;28;20035;-68
2023/09/05 01:24:28;;;;;;;4.07;1.63;;;18.70;99.90;;;;;;4965642;28;20031;-65
2023/09/05 01:26:55;;;;;;;6.93;1.88;;;18.60;99.90;;;;;;4965486;28;20031;-64
2023/09/05 01:29:34;;;;;;;4.57;1.48;;;18.60;99.90;;;;;;4971592;28;20015;-67
2023/09/05 01:32:01;;;;;;;4.45;1.45;;;18.50;99.90;;;;;;4966650;28;20023;-64
2023/09/05 01:34:27;;;;;;;2.47;1.65;;;18.50;99.90;;;;;;4964715;28;20031;-63
2023/09/05 01:36:53;;;;;;;3.70;1.23;;;18.50;99.90;;;;;;4964149;28;20027;-65
2023/09/05 01:39:19;;;;;;;3.72;2.00;;;18.60;99.90;;;;;;4969537;28;20031;-68
2023/09/05 01:41:45;;;;;;;5.45;1.58;;;18.60;99.90;;;;;;4969641;28;20027;-65
2023/09/05 01:44:10;;;;;;;6.90;1.45;;;18.70;99.90;;;;;;4969044;28;20560;-68
2023/09/05 01:46:37;;;;;;;5.32;1.85;;;18.70;99.90;;;;;;4970101;28;20101;-67
2023/09/05 01:49:03;;;;;;;4.88;1.90;;;18.70;99.90;;;;;;4970282;28;20023;-65
2023/09/05 01:51:29;;;;;;;2.78;1.55;;;18.70;99.90;;;;;;4971213;28;20027;-66
2023/09/05 01:53:54;;;;;;;2.28;1.45;;;18.60;99.90;;;;;;4968285;28;20038;-66
2023/09/05 01:56:20;;;;;;;4.47;1.67;;;18.70;99.90;;;;;;4970186;28;20045;-64
2023/09/05 01:58:45;;;;;;;3.38;1.55;;;18.80;99.90;;;;;;4971254;28;20062;-65
2023/09/05 02:01:11;;;;;;;4.03;1.80;;;18.80;99.90;;;;;;4973442;28;20031;-66
2023/09/05 02:03:37;;;;;;;3.83;1.95;;;18.70;99.90;;;;;;4973070;28;20497;-66
2023/09/05 02:06:03;;;;;;;2.50;1.73;;;18.80;99.90;;;;;;4972185;28;20089;-66
2023/09/05 02:08:28;;;;;;;5.47;1.50;;;18.80;99.90;;;;;;4972234;28;20027;-66
2023/09/05 02:10:54;;;;;;;2.45;1.58;;;18.70;99.90;;;;;;4974212;28;20027;-68
2023/09/05 02:13:19;;;;;;;2.00;1.42;;;18.70;99.90;;;;;;4974548;28;20570;-65
2023/09/05 02:15:45;;;;;;;5.60;1.65;;;18.70;99.90;;;;;;4971733;28;20039;-66
2023/09/05 02:18:11;;;;;;;6.97;1.63;;;18.60;99.90;;;;;;4972915;28;20030;-66
2023/09/05 02:20:42;;;;;;;1.70;1.30;;;18.60;99.90;;;;;;4974549;28;20122;-67
2023/09/05 02:23:08;;;;;;;2.80;1.38;;;18.60;99.90;;;;;;4972755;28;20034;-65
2023/09/05 02:25:34;;;;;;;2.25;1.58;;;18.60;99.90;;;;;;4972872;28;20031;-69
2023/09/05 02:27:59;;;;;;;2.47;1.30;;;18.60;99.90;;;;;;4973001;28;20448;-65
2023/09/05 02:30:29;;;;;;;3.13;1.45;;;18.60;99.90;;;;;;4974456;28;20031;-61
2023/09/05 02:32:56;;;;;;;4.63;1.83;;;18.60;99.90;;;;;;4970319;28;20093;-65
2023/09/05 02:35:27;;;;;;;3.35;1.83;;;18.60;99.90;;;;;;4967525;28;20027;-65
2023/09/05 02:37:53;;;;;;;3.25;1.63;;;18.60;99.90;;;;;;4968743;28;20070;-66
2023/09/05 02:40:19;;;;;;;3.08;1.60;;;18.40;99.90;;;;;;4970413;28;20026;-66
2023/09/05 02:42:45;;;;;;;4.93;1.60;;;18.40;99.90;;;;;;4974341;28;20114;-71
2023/09/05 02:45:12;;;;;;;2.42;1.60;;;18.30;99.90;;;;;;4973893;28;20118;-68
2023/09/05 02:47:37;;;;;;;2.30;1.40;;;18.20;99.90;;;;;;4972387;28;20039;-66
2023/09/05 02:50:03;;;;;;;2.38;1.40;;;18.10;99.90;;;;;;4973516;28;20029;-72
2023/09/05 02:52:30;;;;;;;5.65;1.98;;;18.00;99.90;;;;;;4970498;28;20370;-67
2023/09/05 02:54:55;;;;;;;3.05;1.50;;;17.80;99.90;;;;;;4972275;28;20038;-65
2023/09/05 02:57:21;;;;;;;2.60;1.35;;;17.70;99.90;;;;;;4971811;28;20393;-66
2023/09/05 02:59:51;;;;;;;3.58;1.63;;;17.60;99.90;;;;;;4970692;28;20469;-65
2023/09/05 03:02:16;;;;;;;2.30;1.38;;;17.40;99.90;;;;;;4972690;28;20030;-67
2023/09/05 03:04:42;;;;;;;2.25;1.52;;;17.40;99.90;;;;;;4972952;28;20113;-66
2023/09/05 03:07:07;;;;;;;5.70;1.52;;;17.40;99.90;;;;;;4971687;28;20023;-65
2023/09/05 03:09:33;;;;;;;2.97;1.33;;;17.40;99.90;;;;;;4973551;28;20037;-64
2023/09/05 03:11:59;;;;;;;2.47;1.60;;;17.40;99.90;;;;;;4972651;28;20027;-65
2023/09/05 03:14:25;;;;;;;3.10;1.52;;;17.30;99.90;;;;;;4972850;28;20027;-67
2023/09/05 03:16:50;;;;;;;4.82;2.22;;;17.20;99.90;;;;;;4967611;28;20034;-61
2023/09/05 03:19:16;;;;;;;1.88;1.35;;;17.30;99.90;;;;;;4972329;28;20088;-67
2023/09/05 03:21:42;;;;;;;2.75;1.40;;;17.30;99.90;;;;;;4971346;28;20031;-65
2023/09/05 03:24:07;;;;;;;3.60;1.38;;;17.20;99.90;;;;;;4972433;28;20134;-65
2023/09/05 03:26:33;;;;;;;2.55;1.45;;;17.20;99.90;;;;;;4972083;28;20023;-65
2023/09/05 03:28:59;;;;;;;2.70;1.50;;;17.10;99.90;;;;;;4971050;28;20023;-64
2023/09/05 03:31:28;;;;;;;2.53;1.48;;;17.00;99.90;;;;;;4968791;28;20054;-66
2023/09/05 03:33:54;;;;;;;3.53;1.40;;;16.90;99.90;;;;;;4967656;28;20030;-66
2023/09/05 03:36:21;;;;;;;2.95;1.50;;;16.80;99.90;;;;;;4970503;28;20059;-65
2023/09/05 03:38:47;;;;;;;3.35;1.90;;;16.90;99.90;;;;;;4971547;28;20500;-65
2023/09/05 03:41:12;;;;;;;2.00;1.23;;;16.90;99.90;;;;;;4972149;28;20045;-65
2023/09/05 03:43:38;;;;;;;2.45;1.63;;;17.00;99.90;;;;;;4971495;28;20392;-66
2023/09/05 03:46:04;;;;;;;4.18;1.58;;;17.10;99.90;;;;;;4968432;28;20408;-65
2023/09/05 03:48:29;;;;;;;2.88;1.70;;;17.20;99.90;;;;;;4967877;28;20106;-67
2023/09/05 03:50:55;;;;;;;4.55;1.70;;;17.30;99.90;;;;;;4970404;28;20095;-66
2023/09/05 03:53:21;;;;;;;2.67;1.67;;;17.30;99.90;;;;;;4967144;28;20030;-66
2023/09/05 03:55:47;;;;;;;2.33;1.50;;;17.20;99.90;;;;;;4971171;28;20035;-65
2023/09/05 03:58:13;;;;;;;1.45;1.35;;;17.30;99.90;;;;;;4972635;28;20106;-67
2023/09/05 04:00:39;;;;;;;2.42;1.70;;;17.20;99.90;;;;;;4972488;28;20114;-66
2023/09/05 04:03:04;;;;;;;4.65;1.77;;;17.20;99.90;;;;;;4972418;28;20045;-65
2023/09/05 04:05:33;;;;;;;13.75;3.25;;;17.20;99.90;;;;;;4969586;28;20026;-65
2023/09/05 04:07:59;;;;;;;2.70;1.52;;;17.20;99.90;;;;;;4969336;28;20030;-67
2023/09/05 04:10:24;;;;;;;9.27;2.17;;;17.20;99.90;;;;;;4972997;28;20023;-67
2023/09/05 04:12:50;;;;;;;4.65;1.48;;;17.10;99.90;;;;;;4971709;28;20081;-62
2023/09/05 04:15:20;;;;;;;2.72;1.85;;;17.00;99.90;;;;;;4968117;28;20023;-63
2023/09/05 04:17:47;;;;;;;2.08;1.40;;;16.90;99.90;;;;;;4971656;28;20031;-64
2023/09/05 04:20:13;;;;;;;3.10;1.40;;;16.90;99.90;;;;;;4971664;28;20027;-65
2023/09/05 04:22:39;;;;;;;3.08;1.92;;;17.00;99.90;;;;;;4971285;28;20034;-66
2023/09/05 04:25:06;;;;;;;2.75;1.35;;;17.20;99.90;;;;;;4967783;28;20040;-64
2023/09/05 04:27:32;;;;;;;4.75;1.40;;;17.10;99.90;;;;;;4972141;28;20031;-66
2023/09/05 04:29:57;;;;;;;2.63;1.83;;;17.10;99.90;;;;;;4972776;28;20392;-67
2023/09/05 04:32:31;;;;;;;4.32;1.90;;;17.10;99.90;;;;;;4987566;28;20114;-63
2023/09/05 04:35:02;;;;;;;2.22;1.73;;;17.00;99.90;;;;;;4972064;28;20098;-66
2023/09/05 04:37:28;;;;;;;3.95;1.75;;;17.10;99.90;;;;;;4971645;28;20567;-67
2023/09/05 04:39:54;;;;;;;2.80;1.70;;;17.10;99.90;;;;;;4971752;28;20034;-66
2023/09/05 04:42:21;;;;;;;4.80;1.30;;;17.20;99.90;;;;;;4967202;28;20027;-66
2023/09/05 04:44:46;;;;;;;3.40;1.35;;;17.20;99.90;;;;;;4971038;28;20035;-67
2023/09/05 04:47:23;;;;;;;3.90;1.65;;;17.10;99.90;;;;;;4970290;28;20023;-68
2023/09/05 04:49:50;;;;;;;3.15;1.77;;;17.20;99.90;;;;;;4966132;28;20066;-66
2023/09/05 04:52:16;;;;;;;2.95;1.63;;;17.20;99.90;;;;;;4965291;28;20030;-65
2023/09/05 04:54:42;;;;;;;3.88;1.63;;;17.20;99.90;;;;;;4970650;28;20050;-65
2023/09/05 04:57:10;;;;;;;3.42;1.73;;;17.30;99.90;;;;;;4970137;28;20484;-65
2023/09/05 04:59:37;;;;;;;2.67;1.73;;;17.20;99.90;;;;;;4967286;28;20023;-65
2023/09/05 05:02:03;;;;;;;2.38;1.55;;;17.20;99.90;;;;;;4971490;28;20026;-65
2023/09/05 05:04:29;;;;;;;2.70;1.77;;;17.10;99.90;;;;;;4970295;28;20476;-66
2023/09/05 05:06:54;;;;;;;3.25;1.50;;;17.10;99.90;;;;;;4969463;28;20121;-64
2023/09/05 05:09:20;;;;;;;3.85;1.80;;;17.10;99.90;;;;;;4970941;28;20078;-66
2023/09/05 05:11:46;;;;;;;2.70;1.55;;;17.10;99.90;;;;;;4971562;28;20115;-68
2023/09/05 05:14:12;;;;;;;2.65;1.65;;;17.10;99.90;;;;;;4969471;28;20027;-65
2023/09/05 05:16:37;;;;;;;2.00;1.40;;;17.10;99.90;;;;;;4959349;28;20061;-68
2023/09/05 05:19:03;;;;;;;11.38;1.50;;;17.20;99.90;;;;;;4970647;28;20057;-65
2023/09/05 05:21:29;;;;;;;3.28;1.40;;;17.20;99.90;;;;;;4971168;28;20408;-65
2023/09/05 05:23:55;;;;;;;4.57;1.95;;;17.30;99.90;;;;;;4970602;28;20066;-66
2023/09/05 05:26:20;;;;;;;1.70;1.35;;;17.30;99.90;;;;;;4971045;28;20023;-65
2023/09/05 05:28:46;;;;;;;1.85;1.38;;;17.30;99.90;;;;;;4971465;28;20027;-66
2023/09/05 05:31:13;;;;;;;2.78;1.50;;;17.30;99.90;;;;;;4970333;28;20027;-64
2023/09/05 05:33:39;;;;;;;2.92;1.52;;;17.40;99.90;;;;;;4962880;28;20114;-65
2023/09/05 05:36:04;;;;;;;2.35;1.70;;;17.50;99.90;;;;;;4973097;28;20105;-65
2023/09/05 05:38:30;;;;;;;3.17;1.55;;;17.60;99.90;;;;;;4973759;28;20074;-63
2023/09/05 05:40:57;;;;;;;4.47;1.52;;;17.70;99.90;;;;;;4974705;28;20039;-64
2023/09/05 05:43:24;;;;;;;3.42;1.60;;;17.80;99.90;;;;;;4972577;28;20022;-66
2023/09/05 05:45:51;;;;;;;8.27;1.60;;;17.80;99.90;;;;;;4972943;28;20034;-65
2023/09/05 05:48:17;;;;;;;3.25;2.00;;;18.00;99.90;;;;;;4973045;28;20074;-66
2023/09/05 05:50:42;;;;;;;2.63;2.20;;;18.00;99.90;;;;;;4971614;28;20058;-66
2023/09/05 05:53:08;;;;;;;2.65;1.80;;;18.10;99.90;;;;;;4971859;28;20443;-64
2023/09/05 05:55:34;;;;;;;3.35;1.95;;;18.10;99.90;;;;;;4970560;28;20027;-67
2023/09/05 05:58:00;;;;;;;3.53;1.85;;;18.20;99.90;;;;;;4973210;28;20102;-68
2023/09/05 06:00:27;;;;;;;3.60;1.60;;;18.40;99.90;;;;;;4972652;28;20444;-67
2023/09/05 06:02:52;;;;;;;3.15;1.67;;;18.80;99.90;;;;;;4972974;28;20093;-62
2023/09/05 06:05:18;;;;;;;4.35;2.10;;;19.10;99.90;;;;;;4966653;28;20038;-65
2023/09/05 06:07:44;;;;;;;2.95;1.50;;;19.30;99.90;;;;;;4951204;28;20118;-66
2023/09/05 06:10:10;;;;;;;5.25;1.80;;;19.40;99.90;;;;;;4959336;28;20035;-66
2023/09/05 06:12:35;;;;;;;2.80;1.50;;;19.60;99.90;;;;;;4960459;28;20061;-65
2023/09/05 06:15:01;;;;;;;7.07;1.80;;;19.70;99.90;;;;;;4959560;28;20439;-63
2023/09/05 06:17:26;;;;;;;3.25;1.63;;;19.80;99.90;;;;;;4961574;28;20489;-66
2023/09/05 06:19:52;;;;;;;4.82;1.65;;;19.80;99.90;;;;;;4959823;28;20069;-65
2023/09/05 06:22:18;;;;;;;3.28;1.48;;;19.80;99.90;;;;;;4960342;28;20730;-65
2023/09/05 06:24:44;;;;;;;3.25;1.77;;;19.90;99.90;;;;;;4960854;28;20033;-64
2023/09/05 06:27:10;;;;;;;2.60;1.58;;;19.90;99.90;;;;;;4958799;28;20401;-69
2023/09/05 06:29:36;;;;;;;4.63;1.65;;;20.10;99.90;;;;;;4961394;28;20055;-65
2023/09/05 06:32:01;;;;;;;2.80;1.38;;;20.10;99.90;;;;;;4962185;28;20069;-67
2023/09/05 06:34:27;;;;;;;3.88;1.60;;;20.10;99.90;;;;;;4961630;28;20027;-67
2023/09/05 06:36:53;;;;;;;3.08;1.70;;;20.10;99.90;;;;;;4959509;28;20039;-62
2023/09/05 06:39:19;;;;;;;6.15;1.55;;;20.10;99.90;;;;;;4957556;28;21117;-66
2023/09/05 06:41:44;;;;;;;2.47;1.40;;;20.10;99.90;;;;;;4961438;28;20046;-66
2023/09/05 06:44:10;;;;;;;4.43;1.60;;;20.30;99.90;;;;;;4961674;28;20034;-66
2023/09/05 06:46:36;;;;;;;1.58;1.30;;;20.40;99.90;;;;;;4959234;28;20027;-66
2023/09/05 06:49:02;;;;;;;3.95;1.33;;;20.70;99.90;;;;;;4960821;28;20054;-67
2023/09/05 06:51:30;;;;;;;2.47;1.45;;;21.00;99.90;;;;;;4958108;28;20033;-67
2023/09/05 06:53:57;;;;;;;2.65;1.45;;;21.70;99.90;;;;;;4958682;28;20177;-68
2023/09/05 06:56:22;;;;;;;2.70;1.73;;;22.90;97.40;;;;;;4960062;28;20039;-67
2023/09/05 06:58:48;;;;;;;2.35;1.33;;;24.50;94.50;;;;;;4956782;28;20041;-66
2023/09/05 07:01:13;;;;;;;2.72;1.30;;;25.70;92.60;;;;;;4960630;28;20122;-65
2023/09/05 07:03:39;;;;;;;2.20;1.58;;;26.80;91.00;;;;;;4959370;28;20038;-67
2023/09/05 07:06:04;;;;;;;3.63;1.50;;;28.10;88.80;;;;;;4959640;28;20429;-68
2023/09/05 07:08:31;;;;;;;2.22;1.33;;;28.80;83.50;;;;;;4951402;28;20047;-67
2023/09/05 07:10:57;;;;;;;4.20;1.58;;;29.40;83.20;;;;;;4960327;28;20025;-67
2023/09/05 07:13:25;;;;;;;3.15;1.48;;;29.70;82.10;;;;;;4961511;28;20023;-66
2023/09/05 07:15:51;;;;;;;2.17;1.23;;;30.00;78.90;;;;;;4961165;28;20048;-66
2023/09/05 07:18:17;;;;;;;4.32;2.35;;;30.30;77.40;;;;;;4973932;28;20034;-68
2023/09/05 07:20:42;;;;;;;3.97;1.10;;;30.10;79.20;;;;;;4959420;28;20027;-68
2023/09/05 07:23:09;;;;;;;8.85;1.60;;;30.80;78.00;;;;;;4959155;28;20082;-66
2023/09/05 07:25:38;;;;;;;4.45;1.30;;;31.90;76.00;;;;;;4959358;28;20035;-67
2023/09/05 07:28:04;;;;;;;5.13;1.33;;;31.60;76.10;;;;;;4953626;28;20061;-68
2023/09/05 07:30:32;;;;;;;3.67;1.20;;;31.60;74.20;;;;;;4956137;28;20122;-68
2023/09/05 07:32:57;;;;;;;4.13;1.60;;;31.90;72.50;;;;;;4956998;28;20608;-68
2023/09/05 07:35:23;;;;;;;2.10;1.33;;;31.10;73.00;;;;;;4956411;28;20023;-66
2023/09/05 07:37:48;;;;;;;2.15;1.40;;;31.10;75.20;;;;;;4961857;28;20014;-66
2023/09/05 07:40:14;;;;;;;2.90;1.83;;;31.50;74.60;;;;;;4961129;28;20007;-67
2023/09/05 07:42:41;;;;;;;4.55;1.50;;;31.70;72.70;;;;;;4961051;28;21169;-67
2023/09/05 07:45:09;;;;;;;1.58;1.15;;;31.50;72.50;;;;;;4958724;28;20026;-65
2023/09/05 07:47:35;;;;;;;2.88;1.33;;;31.90;72.90;;;;;;4957644;28;20055;-65
2023/09/05 07:50:01;;;;;;;5.93;1.73;;;32.30;71.90;;;;;;4957714;28;20500;-63
2023/09/05 07:52:27;;;;;;;1.80;1.40;;;32.10;71.70;;;;;;4961444;28;20163;-62
2023/09/05 07:54:52;;;;;;;2.92;1.40;;;31.70;71.20;;;;;;4959682;28;20098;-63
2023/09/05 07:57:18;;;;;;;1.98;1.48;;;32.20;72.40;;;;;;4958018;28;20033;-67
2023/09/05 07:59:44;;;;;;;4.18;1.60;;;32.20;70.50;;;;;;4957762;28;20030;-67
2023/09/05 08:02:10;;;;;;;2.35;1.42;;;31.60;71.00;;;;;;4960101;28;21271;-67
2023/09/05 08:04:38;;;;;;;2.28;1.50;;;31.30;72.00;;;;;;4958023;28;20528;-70
2023/09/05 08:07:07;;;;;;;1.92;1.30;;;31.20;72.10;;;;;;4959844;28;20053;-67
2023/09/05 08:09:35;;;;;;;1.33;1.05;;;31.90;71.00;;;;;;4950838;28;20343;-67
2023/09/05 08:12:01;;;;;;;2.97;1.52;;;32.30;71.40;;;;;;4959820;28;20070;-66
2023/09/05 08:14:27;;;;;;;1.92;1.13;;;32.00;70.20;;;;;;4956073;28;20051;-64
2023/09/05 08:16:53;;;;;;;2.22;1.40;;;31.60;71.50;;;;;;4956115;28;20118;-61
2023/09/05 08:19:19;;;;;;;2.58;1.23;;;31.60;71.90;;;;;;4956965;28;20084;-63
2023/09/05 08:21:44;;;;;;;2.50;1.42;;;31.80;70.80;;;;;;4956267;28;20058;-65
2023/09/05 08:24:10;;;;;;;1.88;1.35;;;32.30;70.10;;;;;;4957176;28;20039;-65
2023/09/05 08:26:36;;;;;;;1.75;1.35;;;32.00;70.40;;;;;;4958377;28;20136;-67
2023/09/05 08:29:03;;;;;;;1.70;1.38;;;31.70;70.70;;;;;;4956754;28;20117;-67
2023/09/05 08:31:30;;;;;;;2.03;1.65;;;31.80;72.70;;;;;;4958208;28;20066;-67
2023/09/05 08:33:56;;;;;;;2.63;1.70;;;32.10;71.20;;;;;;4959262;28;21258;-67
2023/09/05 08:36:22;;;;;;;2.42;1.33;;;32.20;70.00;;;;;;4958605;28;20062;-67
2023/09/05 08:38:48;;;;;;;2.60;1.52;;;32.00;71.80;;;;;;4957867;28;20026;-66
2023/09/05 08:41:13;;;;;;;2.42;1.60;;;32.10;69.90;;;;;;4956480;28;20379;-67
2023/09/05 08:43:39;;;;;;;5.90;1.48;;;31.90;70.40;;;;;;4957468;28;20025;-67
2023/09/05 08:46:05;;;;;;;1.90;1.63;;;31.90;70.10;;;;;;4967966;28;20091;-67
2023/09/05 08:48:32;;;;;;;2.30;1.30;;;31.70;71.10;;;;;;4954611;28;20027;-67
2023/09/05 08:50:59;;;;;;;2.95;1.15;;;31.60;72.20;;;;;;4959380;28;20488;-66
2023/09/05 08:53:31;;;;;;;1.83;1.17;;;31.30;72.90;;;;;;4959308;28;20063;-68
2023/09/05 08:55:58;;;;;;;4.25;1.33;;;31.40;72.80;;;;;;4957508;28;20796;-67
2023/09/05 08:58:25;;;;;;;1.67;1.20;;;31.30;71.00;;;;;;4955769;28;20686;-66
2023/09/05 09:00:51;;;;;;;4.43;1.40;;;31.30;72.20;;;;;;4957158;28;20062;-65
2023/09/05 09:03:17;;;;;;;2.70;1.60;;;31.20;72.60;;;;;;4972326;28;20081;-64
2023/09/05 09:05:46;;;;;;;1.90;1.33;;;31.20;73.00;;;;;;4954896;28;20028;-60
2023/09/05 09:08:12;;;;;;;2.08;1.20;;;31.30;73.50;;;;;;4940581;28;20039;-67
2023/09/05 09:10:38;;;;;;;1.77;1.20;;;31.70;71.80;;;;;;4959004;28;20035;-69
2023/09/05 09:13:18;;;;;;;1.33;1.23;;;32.00;72.10;;;;;;4958854;28;21353;-62
2023/09/05 09:15:46;;;;;;;3.38;1.23;;;31.90;72.40;;;;;;4954551;28;20062;-64
2023/09/05 09:18:19;;;;;;;3.80;1.10;;;32.10;70.00;;;;;;4957113;28;20049;-64
2023/09/05 09:20:46;;;;;;;4.72;1.50;;;31.80;71.70;;;;;;4956761;28;20109;-65
2023/09/05 09:23:23;;;;;;;1.50;1.17;;;31.50;70.00;;;;;;4955605;28;20413;-64
2023/09/05 09:25:49;;;;;;;4.45;1.48;;;31.60;70.60;;;;;;4954563;28;20018;-69
2023/09/05 09:28:34;;;;;;;1.52;1.00;;;31.90;69.80;;;;;;4956985;28;20043;-67
2023/09/05 09:31:01;;;;;;;2.30;1.30;;;31.40;69.20;;;;;;4955108;28;20118;-62
2023/09/05 09:33:27;;;;;;;1.95;1.02;;;31.20;69.80;;;;;;4956832;28;20141;-68
2023/09/05 09:36:04;;;;;;;0.70;0.70;;;31.10;68.50;;;;;;4957651;28;20156;-66
2023/09/05 09:38:30;;;;;;;1.98;1.08;;;30.80;70.20;;;;;;4954068;28;20042;-67
2023/09/05 09:41:00;;;;;;;3.17;1.40;;;30.50;70.30;;;;;;4959096;28;20045;-64
2023/09/05 09:43:27;;;;;;;2.50;1.42;;;30.60;70.70;;;;;;4956131;28;20062;-66
2023/09/05 09:45:53;;;;;;;2.28;1.05;;;30.80;70.70;;;;;;4956503;28;20509;-67
2023/09/05 09:48:21;;;;;;;1.90;1.20;;;30.90;70.50;;;;;;4953879;28;20031;-67
2023/09/05 09:50:48;;;;;;;2.38;1.35;;;30.70;69.60;;;;;;4958438;28;20564;-67
2023/09/05 09:53:18;;;;;;;1.92;1.10;;;30.80;70.40;;;;;;4956482;28;20094;-68
2023/09/05 09:55:44;;;;;;;1.63;0.95;;;31.00;71.80;;;;;;4955538;28;20453;-66
2023/09/05 09:58:18;;;;;;;5.50;1.40;;;30.40;70.20;;;;;;4955927;28;20455;-65
2023/09/05 10:00:45;;;;;;;1.58;1.10;;;29.70;72.40;;;;;;4956385;28;20122;-66
2023/09/05 10:03:13;;;;;;;5.75;1.25;;;29.10;72.60;;;;;;4955300;28;20048;-66
2023/09/05 10:05:41;;;;;;;3.00;1.40;;;29.00;74.60;;;;;;4953893;28;20063;-67
2023/09/05 10:08:09;;;;;;;1.38;1.10;;;28.90;76.10;;;;;;4938133;28;20051;-67
2023/09/05 10:10:39;;;;;;;1.85;1.30;;;28.80;75.50;;;;;;4954689;28;20058;-66
2023/09/05 10:13:09;;;;;;;2.90;1.17;;;28.80;75.80;;;;;;4960209;28;20039;-67
2023/09/05 10:15:37;;;;;;;2.13;1.08;;;28.90;75.50;;;;;;4957057;28;20031;-68
2023/09/05 10:18:05;;;;;;;2.17;0.88;;;29.00;75.20;;;;;;4956053;28;20057;-66
2023/09/05 10:20:33;;;;;;;1.25;0.77;;;28.90;74.90;;;;;;4957313;28;20046;-67
2023/09/05 10:22:59;;;;;;;3.05;1.05;;;28.90;74.90;;;;;;4970352;28;21335;-66
2023/09/05 10:25:26;;;;;;;3.05;1.10;;;28.60;72.50;;;;;;4961924;28;20117;-66
2023/09/05 10:27:52;;;;;;;1.77;1.00;;;28.20;74.30;;;;;;4960110;28;20035;-67
2023/09/05 10:30:19;;;;;;;1.67;1.00;;;28.30;75.10;;;;;;4972469;28;20042;-66
2023/09/05 10:32:47;;;;;;;1.10;0.90;;;28.20;74.70;;;;;;4955230;28;20106;-65
2023/09/05 10:35:20;;;;;;;1.90;1.10;;;28.10;74.50;;;;;;4959179;28;20122;-65
2023/09/05 10:37:48;;;;;;;2.85;1.35;;;28.10;74.00;;;;;;4959722;28;20216;-67
2023/09/05 10:40:15;;;;;;;1.88;1.00;;;28.00;76.80;;;;;;4955617;28;21252;-66
2023/09/05 10:42:48;;;;;;;4.43;1.10;;;28.10;75.00;;;;;;4956468;28;20078;-64
2023/09/05 10:45:23;;;;;;;4.35;1.00;;;28.20;75.60;;;;;;4956595;28;20059;-67
2023/09/05 10:47:55;;;;;;;1.75;1.02;;;28.10;75.90;;;;;;4958827;28;20027;-66
2023/09/05 10:50:22;;;;;;;1.30;1.00;;;28.00;76.10;;;;;;4959824;28;20023;-66
2023/09/05 10:53:11;;;;;;;4.25;0.70;;;28.10;75.80;;;;;;4957992;28;20081;-66
2023/09/05 10:55:44;;;;;;;1.85;0.70;;;28.20;76.70;;;;;;4957139;28;20039;-67
2023/09/05 10:58:38;;;;;;;1.75;1.15;;;28.30;76.50;;;;;;4957102;28;20030;-65
2023/09/05 11:01:32;;;;;;;1.38;1.05;;;28.20;76.20;;;;;;4955994;28;20084;-66
2023/09/05 11:04:07;;;;;;;1.48;0.88;;;28.20;76.00;;;;;;4958750;28;20050;-65
2023/09/05 11:06:37;;;;;;;1.27;0.80;;;28.30;77.20;;;;;;4955719;28;20050;-66
2023/09/05 11:09:04;;;;;;;2.05;1.10;;;28.30;76.70;;;;;;4942418;28;20050;-66
2023/09/05 11:11:31;;;;;;;7.50;1.30;;;28.30;76.80;;;;;;4955621;28;20027;-67
2023/09/05 11:13:57;;;;;;;1.17;0.80;;;28.30;76.70;;;;;;4959643;28;20033;-66
2023/09/05 11:16:24;;;;;;;5.45;1.23;;;28.30;75.70;;;;;;4959254;28;20035;-66
2023/09/05 11:18:56;;;;;;;3.30;1.00;;;28.10;75.50;;;;;;4956784;28;20033;-65
2023/09/05 11:21:24;;;;;;;1.67;0.93;;;28.10;77.40;;;;;;4957738;28;20031;-67
2023/09/05 11:23:53;;;;;;;1.73;1.00;;;28.10;76.60;;;;;;4961896;28;20046;-66
2023/09/05 11:26:19;;;;;;;1.20;0.88;;;28.10;76.10;;;;;;4961613;28;20116;-66
2023/09/05 11:28:48;;;;;;;3.45;1.00;;;28.20;79.30;;;;;;4958475;28;21310;-60
2023/09/05 11:31:15;;;;;;;1.13;0.65;;;28.20;77.20;;;;;;4972034;28;20038;-68
2023/09/05 11:33:41;;;;;;;1.65;0.82;;;28.20;77.10;;;;;;4957795;28;20022;-65
2023/09/05 11:36:07;;;;;;;2.35;0.90;;;28.30;78.10;;;;;;4955785;28;20578;-67
2023/09/05 11:38:49;;;;;;;1.42;0.90;;;28.20;76.30;;;;;;4959086;28;20046;-67
2023/09/05 11:41:16;;;;;;;1.20;0.90;;;28.20;75.70;;;;;;4960914;28;20125;-66
2023/09/05 11:43:46;;;;;;;1.70;0.90;;;28.00;75.20;;;;;;4956552;28;20031;-67
2023/09/05 11:46:12;;;;;;;2.10;0.80;;;27.90;76.00;;;;;;4968738;28;20125;-66
2023/09/05 11:48:38;;;;;;;1.00;0.80;;;27.80;75.70;;;;;;4958521;28;20026;-66
2023/09/05 11:51:04;;;;;;;2.58;0.90;;;27.80;77.80;;;;;;4957135;28;20382;-68
2023/09/05 11:53:29;;;;;;;1.50;0.85;;;27.80;76.60;;;;;;4955404;28;20102;-65
2023/09/05 11:55:57;;;;;;;1.02;0.90;;;27.80;77.40;;;;;;4957883;28;20066;-66
2023/09/05 11:58:22;;;;;;;3.15;1.02;;;27.80;75.70;;;;;;4953007;28;20089;-66
2023/09/05 12:00:50;;;;;;;1.67;0.90;;;27.80;76.10;;;;;;4950851;28;20740;-68
2023/09/05 12:03:17;;;;;;;1.70;0.90;;;27.90;75.70;;;;;;4958319;28;20162;-66
2023/09/05 12:05:48;;;;;;;1.50;0.98;;;27.70;75.20;;;;;;4957097;28;20026;-66
2023/09/05 12:08:18;;;;;;;3.60;0.90;;;27.60;76.30;;;;;;4938409;28;20673;-66
2023/09/05 12:10:51;;;;;;;1.65;0.82;;;27.50;76.30;;;;;;4959318;28;20466;-67
2023/09/05 12:13:19;;;;;;;2.55;0.90;;;27.50;78.20;;;;;;4951004;28;20029;-67
2023/09/05 12:15:46;;;;;;;1.63;1.02;;;27.60;78.20;;;;;;4954371;28;20133;-66
2023/09/05 12:18:19;;;;;;;2.13;0.90;;;27.70;77.70;;;;;;4955475;28;20062;-67
2023/09/05 12:20:57;;;;;;;0.88;0.80;;;27.70;78.60;;;;;;4959773;28;20042;-67
2023/09/05 12:23:27;;;;;;;3.22;0.80;;;27.70;78.90;;;;;;4957378;28;20031;-67
2023/09/05 12:25:53;;;;;;;3.35;0.90;;;27.70;75.80;;;;;;4957632;28;20067;-67
2023/09/05 12:28:22;;;;;;;2.28;0.90;;;27.70;76.20;;;;;;4955821;28;20425;-66
2023/09/05 12:30:49;;;;;;;1.25;0.70;;;27.70;76.40;;;;;;4971110;28;20035;-65
2023/09/05 12:33:16;;;;;;;2.35;1.15;;;27.60;76.10;;;;;;4955614;28;20027;-66
2023/09/05 12:35:43;;;;;;;1.33;0.85;;;27.70;78.30;;;;;;4957594;28;21231;-66
2023/09/05 12:38:12;;;;;;;2.08;0.73;;;27.70;78.00;;;;;;4960684;28;22112;-67
2023/09/05 12:40:39;;;;;;;12.43;1.10;;;27.70;79.40;;;;;;4959698;28;20039;-66
2023/09/05 12:43:05;;;;;;;1.08;0.75;;;27.70;78.80;;;;;;4955492;28;20086;-66
2023/09/05 12:45:32;;;;;;;1.10;0.80;;;27.80;78.50;;;;;;4955426;28;20035;-66
2023/09/05 12:47:58;;;;;;;1.67;0.93;;;27.80;78.80;;;;;;4956542;28;20024;-66